FL71 weather

Pennington Heliport
De Funiak Springs, Florida, United States

Public forecast

Using degrees Fahrenheit for public forecast. Weather courtesy of forecast.io.

METAR (pilot weather report)

Closest report is Destin Executive Airport, 15.2 nm (28.2 km) W. Retrieved 2018/08/20 22:53 UTC (10 minutes ago):

KDTS 202253Z COR 25005 10SM FEW028 31/23 A3005 RMK AO2 SLP174 T03110233

TAF (pilot weather forecast)

Closest forecast is Destin-Ft Walton Beach Airport, 19.1 nm (35.3 km) WNW. Retrieved 2018/08/20 17:18 UTC (6 hours ago):

TAF KVPS 201700Z 2017/2123 19012G18KT 9999 VCTS FEW025CB SCT035 BKN200 QNH3001INS TEMPO 2017/2023 21006KT 9000 -TSRA SCT025CB BKN120 BKN200 BECMG 2022/2023 22006KT 9999 NSW SCT030 SCT150 QNH3005INS BECMG 2113/2114 23006KT 9000 VCTS SCT025CB BKN200 QNH3004INS BECMG 2116/2117 21006KT 9000 -TSRA BKN025CB BKN120 BKN200 QNH3006INS TX31/2019Z TN25/2111Z